Airfield :
LOGIN :

Register | Disclaimer

   EN    FR    IT 

 










Legend :    VFR   Marginal VFR   IFR   Intensive IFR   Very Intensive IFR
Visi :
Ceiling :
>= 8 km
>= 3000ft
5 to 8 km
1000 to 3000 ft
1500m to 5 km
500 to 1000 ft
800 to 1500m
200 to 500 ft
< 800m
< 200 ft
Symbols :   Thunderstorms  Fog  Heavy snow  Heavy precipitations  Wind > 20 kt
SIGMETs :     Misc.  Thunderstorms  Icing  Turbulence  Mountain Waves  Volcanic Ashes






- Airport Elevation : 681 ft
- IATA code : LBA


EGNM - Leeds Bradford

CURRENT METAR :
  • 201420Z 15012KT 9999 FEW024 05/02 Q1010

EXPIRED METARs :
  • 201350Z 15014KT 9999 FEW022 05/02 Q1010
  • 201320Z 13014KT 9999 FEW025 05/03 Q1010
  • 201250Z 13012KT 9999 FEW025 05/03 Q1011
  • 201220Z 14012KT 9999 FEW020 05/03 Q1011
  • 201150Z 15008KT 110V180 9999 FEW035 04/03 Q1011

TAF TAF EGNM
Valid from the 20 at 12:00 until the 21 at 12:00 UTC


201103Z 2012/2112 12012KT 6000 BKN004
BECMG 2012/2014 9999 NSW FEW012 SCT035
PROB40
TEMPO 2023/2112 7000 BKN007
PROB30
TEMPO 2101/2111 BKN003
ATIS : +44 113 250 9696 (x2489)



MET'MAP, your aeronautical weather chart ! - Copyright ORBIFLY December 2007 - Disclaimer

ORBIFLY MET'MAP TEAM :

Programming & Development : Alexandra Zaïnal
Concept & Development : Baudouin d'Aumeries
Co-Development & Prog : Marc-Olivier Méhu
Technical & hardware support : Manuel Goepfert

Contact : metmap@orbifly.com




SOURCES & CREDITS :

   NOAA